createdAt,value
2022-08-02T00:00:12.360Z,63.44
2022-08-02T00:02:39.000Z,63.91
2022-08-02T00:05:06.058Z,63.78
2022-08-02T00:07:36.351Z,64.05
2022-08-02T00:10:06.786Z,64.26
2022-08-02T00:12:33.324Z,64.08
2022-08-02T00:14:59.852Z,64.49
2022-08-02T00:17:26.257Z,64.26
2022-08-02T00:19:52.923Z,64.51
2022-08-02T00:22:19.739Z,64.20
2022-08-02T00:24:46.182Z,64.73
2022-08-02T00:27:12.615Z,64.75
2022-08-02T00:29:50.437Z,65.26
2022-08-02T00:32:19.940Z,64.48
2022-08-02T00:34:46.942Z,64.58
2022-08-02T00:37:14.628Z,64.56
2022-08-02T00:39:42.903Z,64.88
2022-08-02T00:42:10.416Z,65.30
2022-08-02T00:44:37.359Z,65.26
2022-08-02T00:47:03.909Z,65.09
2022-08-02T00:49:30.540Z,65.47
2022-08-02T00:52:00.233Z,65.50
2022-08-02T00:54:26.851Z,65.72
2022-08-02T00:56:53.268Z,65.15
2022-08-02T00:59:21.958Z,65.20
2022-08-02T01:01:55.722Z,65.36
2022-08-02T01:04:30.317Z,65.30
2022-08-02T01:07:12.506Z,65.98
2022-08-02T01:09:44.748Z,65.63
2022-08-02T01:12:12.721Z,65.80
2022-08-02T01:14:43.426Z,65.23
2022-08-02T01:17:22.904Z,64.72
2022-08-02T01:20:01.363Z,65.04
2022-08-02T01:23:03.375Z,65.93
2022-08-02T01:25:54.885Z,64.60
2022-08-02T01:28:33.765Z,65.60
2022-08-02T01:31:29.583Z,64.86
2022-08-02T01:34:19.313Z,65.28
2022-08-02T01:36:57.832Z,65.36
2022-08-02T01:39:32.391Z,65.69
2022-08-02T01:42:01.048Z,66.05
2022-08-02T01:44:30.550Z,65.55
2022-08-02T01:47:00.142Z,65.74
2022-08-02T01:49:29.706Z,65.92
2022-08-02T01:52:17.538Z,66.56
2022-08-02T01:54:46.478Z,66.26
2022-08-02T01:57:14.783Z,65.98
2022-08-02T01:59:43.787Z,66.25
2022-08-02T02:02:11.144Z,67.42
2022-08-02T02:04:39.341Z,66.99
2022-08-02T02:07:07.357Z,66.87
2022-08-02T02:09:47.875Z,66.85
2022-08-02T02:12:19.534Z,66.91
2022-08-02T02:14:51.502Z,67.86
2022-08-02T02:17:50.509Z,67.56
2022-08-02T02:20:08.588Z,68.02
2022-08-02T02:22:35.075Z,67.70
2022-08-02T02:25:01.617Z,67.74
2022-08-02T02:27:31.658Z,67.98
2022-08-02T02:29:59.217Z,68.04
2022-08-02T02:32:28.890Z,68.40
2022-08-02T02:34:56.976Z,68.46
2022-08-02T02:37:27.876Z,68.83
2022-08-02T02:39:56.911Z,69.54
2022-08-02T02:42:28.793Z,69.00
2022-08-02T02:44:56.268Z,69.31
2022-08-02T02:47:23.943Z,69.59
2022-08-02T02:50:08.497Z,69.73
2022-08-02T02:52:36.027Z,69.16
2022-08-02T02:55:03.717Z,68.83
2022-08-02T02:57:31.355Z,69.60
2022-08-02T02:59:58.694Z,69.55
2022-08-02T03:02:25.746Z,69.78
2022-08-02T03:04:57.194Z,70.11
2022-08-02T03:07:25.031Z,70.74
2022-08-02T03:09:54.228Z,70.32
2022-08-02T03:12:25.877Z,70.29
2022-08-02T03:14:55.468Z,70.05
2022-08-02T03:17:21.925Z,70.54
2022-08-02T03:19:48.426Z,70.36
2022-08-02T03:22:14.822Z,70.37
2022-08-02T03:24:41.240Z,70.68
2022-08-02T03:27:08.030Z,70.14
2022-08-02T03:29:34.956Z,70.09
2022-08-02T03:32:01.839Z,70.50
2022-08-02T03:34:28.324Z,70.08
2022-08-02T03:36:56.870Z,70.45
2022-08-02T03:39:24.993Z,70.45
2022-08-02T03:41:52.519Z,69.96
2022-08-02T03:44:19.575Z,70.26
2022-08-02T03:46:46.383Z,70.20
2022-08-02T03:49:16.690Z,69.74
2022-08-02T03:51:44.606Z,69.78
2022-08-02T03:54:12.152Z,70.71
2022-08-02T03:56:39.604Z,70.98
2022-08-02T03:59:14.250Z,70.54
2022-08-02T04:01:41.712Z,71.11
2022-08-02T04:04:08.859Z,70.98
2022-08-02T04:06:35.467Z,70.43
2022-08-02T04:09:06.816Z,69.94
2022-08-02T04:11:33.594Z,70.09
2022-08-02T04:14:09.417Z,70.17
2022-08-02T04:16:42.925Z,70.67
2022-08-02T04:19:14.735Z,70.83
2022-08-02T04:21:50.415Z,70.64
2022-08-02T04:24:24.466Z,70.52
2022-08-02T04:26:54.769Z,71.08
2022-08-02T04:29:25.945Z,70.95
2022-08-02T04:31:54.011Z,70.82
2022-08-02T04:34:20.808Z,70.54
2022-08-02T04:36:47.728Z,70.79
2022-08-02T04:39:15.110Z,70.81
2022-08-02T04:41:44.027Z,70.95
2022-08-02T04:44:14.456Z,70.99
2022-08-02T04:46:41.687Z,71.89
2022-08-02T04:49:08.532Z,71.99
2022-08-02T04:51:37.902Z,71.21
2022-08-02T04:54:09.083Z,71.13
2022-08-02T04:56:36.923Z,71.59
2022-08-02T04:59:03.547Z,71.18
2022-08-02T05:01:30.217Z,71.13
2022-08-02T05:03:56.705Z,71.47
2022-08-02T05:06:23.145Z,71.90
2022-08-02T05:08:52.510Z,71.50
2022-08-02T05:11:20.147Z,72.25
2022-08-02T05:13:57.992Z,71.61
2022-08-02T05:16:31.064Z,71.67
2022-08-02T05:19:02.249Z,71.58
2022-08-02T05:21:29.628Z,71.29
2022-08-02T05:23:56.074Z,71.40
2022-08-02T05:26:22.571Z,72.01
2022-08-02T05:28:49.126Z,72.66
2022-08-02T05:31:15.523Z,71.70
2022-08-02T05:33:41.979Z,72.04
2022-08-02T05:36:09.449Z,71.37
2022-08-02T05:38:37.033Z,71.16
2022-08-02T05:41:04.142Z,70.82
2022-08-02T05:43:30.714Z,70.31
2022-08-02T05:45:57.180Z,71.18
2022-08-02T05:48:27.853Z,70.82
2022-08-02T05:51:04.158Z,70.15
2022-08-02T05:53:50.541Z,69.34
2022-08-02T05:56:24.188Z,69.35
2022-08-02T05:59:01.206Z,69.55
2022-08-02T06:01:34.136Z,69.13
2022-08-02T06:04:02.100Z,68.56
2022-08-02T06:06:32.422Z,67.51
2022-08-02T06:09:06.667Z,67.64
2022-08-02T06:12:01.881Z,67.78
2022-08-02T06:14:31.867Z,67.99
2022-08-02T06:16:59.279Z,68.59
2022-08-02T06:19:26.315Z,68.51
2022-08-02T06:22:31.690Z,68.18
2022-08-02T06:24:42.837Z,67.32
2022-08-02T06:27:09.469Z,67.43
2022-08-02T06:29:39.100Z,67.83
2022-08-02T06:32:07.192Z,68.34
2022-08-02T06:34:40.927Z,68.12
2022-08-02T06:37:17.774Z,68.46
2022-08-02T06:39:47.548Z,68.96
2022-08-02T06:42:25.565Z,68.89
2022-08-02T06:44:57.455Z,69.12
2022-08-02T06:47:24.840Z,68.82
2022-08-02T06:49:54.692Z,68.97
2022-08-02T06:52:31.116Z,69.02
2022-08-02T06:55:03.222Z,69.16
2022-08-02T06:57:30.375Z,68.85
2022-08-02T06:59:58.712Z,69.39
2022-08-02T07:02:25.325Z,68.89
2022-08-02T07:04:51.931Z,68.52
2022-08-02T07:07:18.675Z,69.01
2022-08-02T07:09:56.984Z,69.16
2022-08-02T07:12:29.978Z,68.98
2022-08-02T07:14:57.110Z,68.63
2022-08-02T07:17:23.566Z,68.31
2022-08-02T07:19:50.057Z,68.30
2022-08-02T07:22:18.647Z,68.62
2022-08-02T07:24:45.365Z,68.86
2022-08-02T07:27:12.861Z,68.71
2022-08-02T07:29:45.500Z,68.10
2022-08-02T07:32:18.587Z,68.19
2022-08-02T07:34:51.201Z,67.80
2022-08-02T07:37:52.731Z,67.17
2022-08-02T07:40:13.942Z,68.74
2022-08-02T07:42:42.794Z,68.22
2022-08-02T07:45:10.153Z,68.34
2022-08-02T07:47:38.227Z,67.74
2022-08-02T07:50:05.471Z,67.78
2022-08-02T07:52:31.942Z,67.46
2022-08-02T07:54:58.741Z,68.06
2022-08-02T07:57:25.208Z,67.33
2022-08-02T07:59:51.718Z,67.61
2022-08-02T08:02:18.253Z,68.55
2022-08-02T08:04:44.753Z,67.83
2022-08-02T08:07:11.861Z,68.42
2022-08-02T08:09:42.174Z,68.11
2022-08-02T08:12:10.084Z,67.83
2022-08-02T08:14:37.595Z,68.50
2022-08-02T08:17:05.652Z,67.92
2022-08-02T08:19:50.517Z,67.44
2022-08-02T08:22:21.357Z,67.40
2022-08-02T08:24:48.844Z,68.27
2022-08-02T08:27:19.836Z,68.38
2022-08-02T08:29:46.377Z,68.15
2022-08-02T08:32:17.794Z,67.64
2022-08-02T08:34:46.253Z,67.60
2022-08-02T08:37:17.807Z,67.29
2022-08-02T08:39:56.600Z,66.99
2022-08-02T08:42:30.541Z,66.12
2022-08-02T08:44:58.588Z,65.16
2022-08-02T08:47:33.621Z,64.60
2022-08-02T08:50:14.387Z,65.05
2022-08-02T08:53:01.858Z,65.81
2022-08-02T08:55:29.782Z,65.56
2022-08-02T08:57:58.724Z,64.76
2022-08-02T09:00:25.195Z,64.19
2022-08-02T09:02:51.898Z,64.25
2022-08-02T09:05:18.744Z,63.68
2022-08-02T09:07:50.024Z,63.34
2022-08-02T09:10:41.206Z,64.00
2022-08-02T09:13:38.920Z,62.25
2022-08-02T09:16:12.417Z,62.41
2022-08-02T09:18:46.903Z,62.12
2022-08-02T09:21:15.702Z,62.96
2022-08-02T09:23:44.960Z,62.07
2022-08-02T09:26:17.218Z,62.73
2022-08-02T09:28:46.512Z,62.61
2022-08-02T09:31:14.262Z,62.03
2022-08-02T09:33:43.218Z,62.53
2022-08-02T09:36:15.067Z,61.69
2022-08-02T09:38:53.283Z,61.52
2022-08-02T09:41:28.375Z,60.22
2022-08-02T09:44:04.363Z,62.00
2022-08-02T09:46:45.918Z,61.82
2022-08-02T09:49:15.148Z,61.41
2022-08-02T09:51:54.309Z,60.88
2022-08-02T09:54:25.709Z,62.73
2022-08-02T09:56:53.447Z,61.27
2022-08-02T09:59:21.748Z,60.25
2022-08-02T10:01:51.109Z,60.78
2022-08-02T10:04:29.994Z,61.18
2022-08-02T10:06:59.385Z,60.36
2022-08-02T10:09:28.629Z,61.69
2022-08-02T10:11:55.392Z,61.67
2022-08-02T10:14:21.988Z,61.06
2022-08-02T10:16:48.483Z,61.21
2022-08-02T10:19:16.447Z,61.52
2022-08-02T10:22:04.092Z,60.87
2022-08-02T10:24:32.304Z,61.39
2022-08-02T10:27:00.913Z,61.34
2022-08-02T10:29:31.061Z,60.28
2022-08-02T10:32:26.537Z,60.62
2022-08-02T10:35:20.178Z,60.23
2022-08-02T10:37:58.047Z,60.98
2022-08-02T10:40:26.748Z,59.51
2022-08-02T10:43:00.871Z,57.73
2022-08-02T10:45:28.706Z,58.16
2022-08-02T10:48:10.153Z,58.98
2022-08-02T10:50:45.723Z,59.96
2022-08-02T10:53:29.051Z,59.00
2022-08-02T10:55:58.580Z,58.96
2022-08-02T10:58:32.342Z,57.64
2022-08-02T11:01:23.224Z,57.39
2022-08-02T11:03:49.745Z,56.53
2022-08-02T11:06:25.653Z,56.49
2022-08-02T11:09:31.764Z,55.70
2022-08-02T11:12:19.675Z,55.54
2022-08-02T11:15:07.771Z,54.66
2022-08-02T11:17:54.923Z,54.78
2022-08-02T11:20:23.089Z,54.92
2022-08-02T11:22:52.332Z,54.28
2022-08-02T11:25:21.806Z,54.71
2022-08-02T11:27:49.203Z,53.09
2022-08-02T11:30:16.281Z,51.70
2022-08-02T11:32:42.806Z,51.78
2022-08-02T11:35:09.800Z,52.50
2022-08-02T11:37:39.260Z,51.46
2022-08-02T11:40:13.156Z,50.81
2022-08-02T11:42:50.489Z,50.77
2022-08-02T11:45:21.071Z,49.38
2022-08-02T11:47:51.986Z,49.26
2022-08-02T11:50:29.970Z,48.93
2022-08-02T11:52:57.438Z,48.88
2022-08-02T11:55:32.136Z,49.64
2022-08-02T11:58:05.899Z,49.09
2022-08-02T12:00:32.937Z,47.82
2022-08-02T12:02:59.793Z,48.35
2022-08-02T12:08:19.287Z,47.24
2022-08-02T12:10:50.004Z,47.01
2022-08-02T12:13:16.452Z,44.69
2022-08-02T12:15:45.385Z,46.19
2022-08-02T12:18:35.716Z,45.36
2022-08-02T12:21:03.748Z,45.94
2022-08-02T12:23:30.618Z,45.23
2022-08-02T12:26:06.978Z,46.84
2022-08-02T12:28:36.342Z,45.43
2022-08-02T12:31:02.832Z,44.73
2022-08-02T12:33:45.883Z,46.11
2022-08-02T12:36:39.846Z,47.32
2022-08-02T12:39:12.440Z,45.28
2022-08-02T12:41:39.015Z,45.65
2022-08-02T12:44:21.189Z,45.42
2022-08-02T12:46:59.119Z,44.93
2022-08-02T12:49:26.874Z,43.94
2022-08-02T12:51:56.941Z,44.15
2022-08-02T12:54:38.478Z,45.19
2022-08-02T12:57:16.331Z,45.31
2022-08-02T12:59:45.112Z,45.34
2022-08-02T13:02:13.055Z,44.19
2022-08-02T13:04:40.716Z,43.77
2022-08-02T13:07:08.302Z,44.87
2022-08-02T13:09:44.769Z,43.53
2022-08-02T13:12:11.814Z,43.58
2022-08-02T13:14:41.767Z,44.14
2022-08-02T13:17:09.768Z,42.33
2022-08-02T13:19:37.205Z,43.21
2022-08-02T13:22:04.322Z,43.71
2022-08-02T13:24:40.076Z,43.92
2022-08-02T13:27:20.776Z,42.91
2022-08-02T13:29:48.676Z,42.77
2022-08-02T13:32:15.979Z,41.55
2022-08-02T13:34:42.938Z,41.41
2022-08-02T13:37:09.401Z,40.96
2022-08-02T13:39:36.073Z,39.44
2022-08-02T13:42:02.662Z,39.85
2022-08-02T13:44:29.155Z,40.08
2022-08-02T13:46:56.209Z,39.85
2022-08-02T13:49:49.793Z,40.92
2022-08-02T13:52:09.360Z,40.18
2022-08-02T13:54:36.134Z,41.49
2022-08-02T13:57:02.657Z,41.29
2022-08-02T13:59:56.222Z,41.08
2022-08-02T14:02:18.066Z,40.32
2022-08-02T14:04:45.430Z,40.89
2022-08-02T14:07:11.985Z,40.77
2022-08-02T14:09:38.632Z,40.39
2022-08-02T14:12:07.313Z,40.19
2022-08-02T14:14:33.695Z,40.16
2022-08-02T14:17:00.086Z,40.82
2022-08-02T14:19:28.610Z,40.13
2022-08-02T14:21:55.102Z,40.61
2022-08-02T14:24:37.874Z,41.70
2022-08-02T14:27:04.278Z,41.66
2022-08-02T14:29:30.668Z,41.70
2022-08-02T14:31:57.035Z,41.91
2022-08-02T14:34:23.549Z,41.10
2022-08-02T14:36:53.674Z,40.72
2022-08-02T14:39:20.939Z,39.31
2022-08-02T14:41:59.570Z,39.63
2022-08-02T14:44:26.964Z,40.45
2022-08-02T14:46:53.749Z,41.00
2022-08-02T14:49:25.121Z,40.84
2022-08-02T14:51:55.969Z,41.27
2022-08-02T14:54:27.989Z,41.44
2022-08-02T14:57:01.366Z,40.02
2022-08-02T14:59:28.411Z,40.00
2022-08-02T15:01:55.170Z,39.93
2022-08-02T15:04:21.862Z,41.17
2022-08-02T15:06:48.370Z,41.63
2022-08-02T15:09:14.908Z,41.46
2022-08-02T15:11:47.420Z,41.24
2022-08-02T15:14:22.103Z,40.54
2022-08-02T15:16:58.816Z,42.57
2022-08-02T15:19:49.712Z,41.58
2022-08-02T15:22:14.394Z,42.30
2022-08-02T15:24:43.950Z,42.04
2022-08-02T15:27:13.477Z,41.22
2022-08-02T15:29:40.231Z,39.93
2022-08-02T15:32:06.894Z,38.06
2022-08-02T15:34:33.307Z,37.46
2022-08-02T15:36:59.717Z,37.30
2022-08-02T15:39:26.139Z,39.71
2022-08-02T15:41:52.799Z,41.11
2022-08-02T15:44:19.322Z,42.36
2022-08-02T15:46:45.775Z,42.47
2022-08-02T15:49:12.322Z,43.98
2022-08-02T15:51:38.791Z,44.16
2022-08-02T15:54:05.273Z,44.36
2022-08-02T15:56:31.671Z,44.54
2022-08-02T15:58:58.983Z,45.54
2022-08-02T16:01:35.229Z,45.75
2022-08-02T16:04:07.082Z,45.63
2022-08-02T16:06:34.624Z,44.68
2022-08-02T16:09:01.343Z,45.44
2022-08-02T16:11:28.124Z,41.06
2022-08-02T16:13:54.949Z,37.16
2022-08-02T16:16:24.162Z,37.44
2022-08-02T16:18:50.927Z,39.29
2022-08-02T16:21:17.575Z,42.48
2022-08-02T16:23:59.009Z,44.14
2022-08-02T16:26:30.958Z,44.97
2022-08-02T16:28:58.388Z,45.34
2022-08-02T16:31:25.363Z,45.21
2022-08-02T16:33:56.382Z,45.34
2022-08-02T16:36:24.372Z,46.23
2022-08-02T16:38:51.119Z,46.88
2022-08-02T16:41:18.000Z,47.30
2022-08-02T16:43:44.569Z,47.96
2022-08-02T16:46:11.194Z,48.23
2022-08-02T16:48:37.720Z,47.88
2022-08-02T16:51:04.833Z,48.62
2022-08-02T16:56:29.010Z,49.22
2022-08-02T16:58:59.701Z,49.11
2022-08-02T17:02:11.984Z,49.13
2022-08-02T17:04:15.624Z,49.06
2022-08-02T17:06:48.034Z,49.40
2022-08-02T17:10:03.756Z,49.63
2022-08-02T17:12:06.486Z,49.51
2022-08-02T17:14:52.556Z,49.79
2022-08-02T17:17:22.341Z,49.66
2022-08-02T17:20:00.303Z,49.09
2022-08-02T17:22:27.084Z,49.44
2022-08-02T17:24:54.032Z,49.56
2022-08-02T17:27:20.510Z,49.23
2022-08-02T17:29:47.016Z,50.23
2022-08-02T17:32:15.287Z,50.00
2022-08-02T17:34:56.346Z,50.53
2022-08-02T17:37:26.376Z,50.77
2022-08-02T17:39:52.889Z,50.47
2022-08-02T17:42:23.119Z,50.57
2022-08-02T17:44:51.236Z,51.19
2022-08-02T17:47:18.136Z,50.60
2022-08-02T17:49:48.620Z,51.30
2022-08-02T17:52:50.230Z,51.50
2022-08-02T17:55:04.594Z,51.95
2022-08-02T17:57:56.966Z,52.39
2022-08-02T18:00:18.278Z,52.91
2022-08-02T18:02:52.718Z,52.81
2022-08-02T18:05:21.829Z,53.71
2022-08-02T18:07:51.942Z,53.25
2022-08-02T18:10:20.724Z,53.51
2022-08-02T18:12:49.798Z,53.92
2022-08-02T18:15:16.420Z,54.32
2022-08-02T18:17:49.422Z,54.32
2022-08-02T18:20:16.941Z,54.53
2022-08-02T18:22:46.271Z,54.50
2022-08-02T18:25:37.760Z,54.51
2022-08-02T18:28:10.199Z,54.54
2022-08-02T18:30:37.029Z,54.15
2022-08-02T18:33:58.234Z,54.56
2022-08-02T18:35:50.052Z,54.74
2022-08-02T18:38:17.359Z,54.58
2022-08-02T18:40:51.187Z,54.94
2022-08-02T18:43:18.332Z,55.42
2022-08-02T18:46:07.081Z,55.40
2022-08-02T18:48:31.304Z,55.77
2022-08-02T18:50:57.841Z,55.84
2022-08-02T18:53:39.182Z,55.68
2022-08-02T18:56:10.406Z,55.93
2022-08-02T18:58:48.073Z,55.58
2022-08-02T19:01:21.801Z,55.66
2022-08-02T19:03:59.452Z,56.21
2022-08-02T19:06:27.690Z,56.06
2022-08-02T19:11:48.239Z,56.65
2022-08-02T19:14:27.184Z,56.35
2022-08-02T19:17:00.316Z,56.18
2022-08-02T19:19:44.110Z,56.29
2022-08-02T19:22:16.702Z,56.33
2022-08-02T19:24:50.307Z,56.70
2022-08-02T19:27:25.998Z,56.11
2022-08-02T19:29:53.526Z,56.41
2022-08-02T19:32:39.846Z,56.89
2022-08-02T19:35:19.748Z,57.02
2022-08-02T19:38:04.935Z,57.14
2022-08-02T19:40:33.989Z,56.94
2022-08-02T19:44:27.202Z,56.71
2022-08-02T19:45:49.915Z,57.03
2022-08-02T19:48:24.149Z,57.32
2022-08-02T19:50:55.920Z,57.55
2022-08-02T19:53:24.227Z,57.79
2022-08-02T19:56:00.909Z,57.91
2022-08-02T19:58:29.346Z,58.27
2022-08-02T20:00:57.369Z,57.77
2022-08-02T20:06:10.454Z,58.27
2022-08-02T20:08:53.225Z,58.34
2022-08-02T20:11:24.587Z,58.42
2022-08-02T20:13:52.062Z,58.67
2022-08-02T20:16:27.231Z,58.77
2022-08-02T20:18:56.050Z,59.01
2022-08-02T20:21:36.316Z,58.90
2022-08-02T20:24:07.285Z,59.55
2022-08-02T20:26:35.301Z,59.47
2022-08-02T20:29:03.710Z,59.65
2022-08-02T20:31:30.575Z,59.20
2022-08-02T20:33:57.195Z,59.72
2022-08-02T20:36:25.187Z,59.49
2022-08-02T20:38:51.852Z,59.88
2022-08-02T20:41:21.698Z,59.69
2022-08-02T20:43:49.008Z,60.52
2022-08-02T20:46:16.073Z,60.23
2022-08-02T20:48:44.200Z,60.24
2022-08-02T20:51:12.387Z,59.63
2022-08-02T20:53:54.885Z,60.22
2022-08-02T20:56:23.119Z,60.67
2022-08-02T20:58:52.013Z,60.66
2022-08-02T21:01:21.067Z,60.91
2022-08-02T21:03:58.342Z,60.48
2022-08-02T21:06:28.069Z,60.76
2022-08-02T21:08:55.374Z,61.25
2022-08-02T21:11:25.510Z,61.97
2022-08-02T21:14:08.581Z,61.34
2022-08-02T21:16:35.912Z,61.51
2022-08-02T21:19:02.586Z,62.22
2022-08-02T21:21:30.089Z,61.52
2022-08-02T21:23:56.962Z,61.85
2022-08-02T21:26:28.191Z,61.88
2022-08-02T21:28:57.474Z,61.93
2022-08-02T21:31:30.172Z,62.39
2022-08-02T21:34:00.484Z,62.32
2022-08-02T21:36:33.810Z,62.62
2022-08-02T21:39:08.825Z,63.03
2022-08-02T21:41:46.678Z,63.20
2022-08-02T21:44:19.148Z,63.26
2022-08-02T21:46:49.427Z,63.11
2022-08-02T21:49:20.490Z,63.56
2022-08-02T21:51:49.028Z,63.57
2022-08-02T21:54:20.974Z,64.04
2022-08-02T21:56:49.972Z,63.66
2022-08-02T21:59:25.639Z,63.45
2022-08-02T22:01:57.393Z,63.93
2022-08-02T22:04:25.873Z,64.40
2022-08-02T22:06:52.907Z,64.03
2022-08-02T22:09:43.655Z,63.95
2022-08-02T22:12:09.965Z,64.47
2022-08-02T22:14:39.628Z,64.80
2022-08-02T22:19:54.700Z,64.63
2022-08-02T22:22:28.347Z,64.65
2022-08-02T22:24:56.627Z,65.05
2022-08-02T22:27:23.281Z,65.22
2022-08-02T22:29:49.755Z,64.83
2022-08-02T22:32:36.123Z,64.94
2022-08-02T22:35:08.818Z,64.61
2022-08-02T22:38:17.660Z,65.05
2022-08-02T22:40:24.267Z,65.32
2022-08-02T22:42:50.692Z,65.49
2022-08-02T22:45:17.096Z,65.56
2022-08-02T22:47:50.982Z,65.20
2022-08-02T22:50:17.946Z,65.82
2022-08-02T22:52:46.924Z,66.37
2022-08-02T22:55:17.329Z,66.78
2022-08-02T22:57:56.878Z,66.98
2022-08-02T22:58:35.574Z,48.78
2022-08-02T22:58:47.003Z,56.60
2022-08-02T22:58:54.317Z,58.25
2022-08-02T22:59:10.954Z,64.39
2022-08-02T23:00:25.282Z,66.49
2022-08-02T23:02:52.043Z,66.12
2022-08-02T23:05:18.926Z,66.61
2022-08-02T23:07:45.493Z,66.88
2022-08-02T23:10:12.115Z,66.94
2022-08-02T23:12:38.520Z,67.50
2022-08-02T23:15:05.447Z,67.39
2022-08-02T23:17:50.248Z,67.63
2022-08-02T23:20:20.205Z,67.87
2022-08-02T23:22:46.621Z,68.17
2022-08-02T23:25:14.231Z,68.11
2022-08-02T23:27:40.757Z,68.76
2022-08-02T23:30:17.860Z,68.61
2022-08-02T23:32:44.426Z,68.58
2022-08-02T23:35:16.628Z,68.26
2022-08-02T23:38:00.854Z,68.53
2022-08-02T23:40:39.379Z,69.04
2022-08-02T23:43:14.050Z,69.01
2022-08-02T23:45:45.415Z,69.04
2022-08-02T23:48:11.970Z,68.88
2022-08-02T23:50:38.863Z,69.76
2022-08-02T23:53:05.376Z,69.97
2022-08-02T23:55:31.795Z,69.51
2022-08-02T23:57:58.222Z,70.09
